sensor_id;sensor_type;location;lat;lon;timestamp;pressure;altitude;pressure_sealevel;temperature;humidity
77723;BME280;67811;42.656;23.394;2023-02-26T00:02:02;93927.16;;;13.68;39.11
77723;BME280;67811;42.656;23.394;2023-02-26T00:04:32;93918.69;;;13.71;39.07
77723;BME280;67811;42.656;23.394;2023-02-26T00:07:03;93908.28;;;13.58;39.55
77723;BME280;67811;42.656;23.394;2023-02-26T00:09:34;93921.00;;;13.56;39.57
77723;BME280;67811;42.656;23.394;2023-02-26T00:12:05;93919.75;;;13.59;39.48
77723;BME280;67811;42.656;23.394;2023-02-26T00:14:36;93917.88;;;13.59;39.53
77723;BME280;67811;42.656;23.394;2023-02-26T00:17:21;93923.53;;;13.51;39.82
77723;BME280;67811;42.656;23.394;2023-02-26T00:19:55;93904.59;;;13.36;40.53
77723;BME280;67811;42.656;23.394;2023-02-26T00:22:27;93913.03;;;13.44;39.71
77723;BME280;67811;42.656;23.394;2023-02-26T00:24:57;93906.53;;;13.40;39.83
77723;BME280;67811;42.656;23.394;2023-02-26T00:27:28;93913.59;;;13.35;40.22
77723;BME280;67811;42.656;23.394;2023-02-26T00:29:59;93908.88;;;13.37;40.04
77723;BME280;67811;42.656;23.394;2023-02-26T00:32:32;93905.97;;;13.38;40.04
77723;BME280;67811;42.656;23.394;2023-02-26T00:35:04;93903.78;;;13.35;40.32
77723;BME280;67811;42.656;23.394;2023-02-26T00:37:49;93916.97;;;13.30;40.40
77723;BME280;67811;42.656;23.394;2023-02-26T00:40:27;93895.88;;;13.40;40.44
77723;BME280;67811;42.656;23.394;2023-02-26T00:42:59;93895.81;;;13.35;40.23
77723;BME280;67811;42.656;23.394;2023-02-26T00:45:30;93888.63;;;13.24;40.58
77723;BME280;67811;42.656;23.394;2023-02-26T00:48:26;93891.28;;;13.24;40.89
77723;BME280;67811;42.656;23.394;2023-02-26T00:51:08;93883.72;;;13.09;40.77
77723;BME280;67811;42.656;23.394;2023-02-26T00:53:46;93871.47;;;13.08;40.64
77723;BME280;67811;42.656;23.394;2023-02-26T00:56:19;93869.41;;;13.22;40.03
77723;BME280;67811;42.656;23.394;2023-02-26T00:58:49;93864.78;;;13.29;39.86
77723;BME280;67811;42.656;23.394;2023-02-26T01:01:20;93882.56;;;13.17;39.84
77723;BME280;67811;42.656;23.394;2023-02-26T01:03:53;93894.50;;;13.26;39.43
77723;BME280;67811;42.656;23.394;2023-02-26T01:06:27;93875.09;;;13.26;39.59
77723;BME280;67811;42.656;23.394;2023-02-26T01:09:02;93866.63;;;13.29;38.76
77723;BME280;67811;42.656;23.394;2023-02-26T01:11:35;93861.06;;;13.54;37.84
77723;BME280;67811;42.656;23.394;2023-02-26T01:14:06;93861.66;;;13.56;38.24
77723;BME280;67811;42.656;23.394;2023-02-26T01:16:43;93857.13;;;13.44;38.72
77723;BME280;67811;42.656;23.394;2023-02-26T01:19:26;93855.41;;;13.38;38.28
77723;BME280;67811;42.656;23.394;2023-02-26T01:22:04;93854.72;;;13.43;37.91
77723;BME280;67811;42.656;23.394;2023-02-26T01:24:37;93845.56;;;13.39;38.02
77723;BME280;67811;42.656;23.394;2023-02-26T01:27:08;93827.66;;;13.46;37.75
77723;BME280;67811;42.656;23.394;2023-02-26T01:29:39;93826.72;;;13.52;37.13
77723;BME280;67811;42.656;23.394;2023-02-26T01:32:14;93836.06;;;13.55;37.28
77723;BME280;67811;42.656;23.394;2023-02-26T01:34:54;93820.91;;;13.55;37.10
77723;BME280;67811;42.656;23.394;2023-02-26T01:37:30;93813.41;;;13.64;36.76
77723;BME280;67811;42.656;23.394;2023-02-26T01:40:33;93807.81;;;13.65;36.94
77723;BME280;67811;42.656;23.394;2023-02-26T01:43:10;93793.16;;;13.51;37.65
77723;BME280;67811;42.656;23.394;2023-02-26T01:45:54;93799.06;;;13.53;37.39
77723;BME280;67811;42.656;23.394;2023-02-26T01:48:36;93786.81;;;13.52;37.10
77723;BME280;67811;42.656;23.394;2023-02-26T01:51:09;93794.88;;;13.45;37.58
77723;BME280;67811;42.656;23.394;2023-02-26T01:53:39;93788.19;;;13.43;37.57
77723;BME280;67811;42.656;23.394;2023-02-26T01:56:13;93788.09;;;13.38;37.34
77723;BME280;67811;42.656;23.394;2023-02-26T01:58:47;93779.75;;;13.46;36.95
77723;BME280;67811;42.656;23.394;2023-02-26T02:01:19;93797.91;;;13.49;37.23
77723;BME280;67811;42.656;23.394;2023-02-26T02:03:49;93784.84;;;13.36;37.44
77723;BME280;67811;42.656;23.394;2023-02-26T02:06:23;93782.63;;;13.44;36.70
77723;BME280;67811;42.656;23.394;2023-02-26T02:08:55;93793.75;;;13.41;36.60
77723;BME280;67811;42.656;23.394;2023-02-26T02:11:26;93783.59;;;13.27;37.01
77723;BME280;67811;42.656;23.394;2023-02-26T02:14:06;93783.91;;;13.07;38.35
77723;BME280;67811;42.656;23.394;2023-02-26T02:16:44;93786.56;;;12.95;37.45
77723;BME280;67811;42.656;23.394;2023-02-26T02:19:32;93790.94;;;12.78;38.83
77723;BME280;67811;42.656;23.394;2023-02-26T02:22:23;93791.53;;;12.80;37.21
77723;BME280;67811;42.656;23.394;2023-02-26T02:25:14;93798.47;;;12.69;38.38
77723;BME280;67811;42.656;23.394;2023-02-26T02:27:56;93788.19;;;12.84;37.49
77723;BME280;67811;42.656;23.394;2023-02-26T02:30:36;93772.69;;;13.05;37.17
77723;BME280;67811;42.656;23.394;2023-02-26T02:33:14;93768.75;;;12.96;37.40
77723;BME280;67811;42.656;23.394;2023-02-26T02:35:51;93786.56;;;13.07;36.40
77723;BME280;67811;42.656;23.394;2023-02-26T02:38:26;93782.88;;;13.08;36.40
77723;BME280;67811;42.656;23.394;2023-02-26T02:41:06;93767.25;;;13.11;35.84
77723;BME280;67811;42.656;23.394;2023-02-26T02:43:40;93791.19;;;13.00;36.93
77723;BME280;67811;42.656;23.394;2023-02-26T02:46:13;93788.31;;;13.01;37.46
77723;BME280;67811;42.656;23.394;2023-02-26T02:48:50;93797.56;;;12.87;36.68
77723;BME280;67811;42.656;23.394;2023-02-26T02:51:26;93798.81;;;12.84;36.63
77723;BME280;67811;42.656;23.394;2023-02-26T02:54:03;93803.06;;;12.74;37.24
77723;BME280;67811;42.656;23.394;2023-02-26T02:56:39;93806.88;;;12.66;38.76
77723;BME280;67811;42.656;23.394;2023-02-26T02:59:14;93804.81;;;12.68;37.17
77723;BME280;67811;42.656;23.394;2023-02-26T03:01:48;93796.00;;;12.56;37.47
77723;BME280;67811;42.656;23.394;2023-02-26T03:04:21;93802.13;;;12.56;37.67
77723;BME280;67811;42.656;23.394;2023-02-26T03:06:51;93800.50;;;12.55;37.91
77723;BME280;67811;42.656;23.394;2023-02-26T03:09:22;93811.50;;;12.47;39.28
77723;BME280;67811;42.656;23.394;2023-02-26T03:11:53;93818.28;;;12.43;37.72
77723;BME280;67811;42.656;23.394;2023-02-26T03:14:24;93798.50;;;12.39;38.26
77723;BME280;67811;42.656;23.394;2023-02-26T03:17:01;93795.50;;;12.35;38.82
77723;BME280;67811;42.656;23.394;2023-02-26T03:19:42;93804.38;;;12.29;38.89
77723;BME280;67811;42.656;23.394;2023-02-26T03:22:17;93794.41;;;12.25;38.74
77723;BME280;67811;42.656;23.394;2023-02-26T03:24:55;93789.19;;;12.48;36.97
77723;BME280;67811;42.656;23.394;2023-02-26T03:27:31;93797.31;;;12.65;35.66
77723;BME280;67811;42.656;23.394;2023-02-26T03:30:05;93798.34;;;12.64;36.90
77723;BME280;67811;42.656;23.394;2023-02-26T03:32:42;93787.66;;;12.52;37.79
77723;BME280;67811;42.656;23.394;2023-02-26T03:35:17;93796.25;;;12.54;36.95
77723;BME280;67811;42.656;23.394;2023-02-26T03:37:54;93782.72;;;12.68;35.37
77723;BME280;67811;42.656;23.394;2023-02-26T03:40:29;93776.25;;;12.63;35.96
77723;BME280;67811;42.656;23.394;2023-02-26T03:43:04;93789.34;;;12.65;35.42
77723;BME280;67811;42.656;23.394;2023-02-26T03:45:37;93785.50;;;12.61;36.02
77723;BME280;67811;42.656;23.394;2023-02-26T03:48:11;93781.22;;;12.48;36.88
77723;BME280;67811;42.656;23.394;2023-02-26T03:50:46;93780.03;;;12.44;36.33
77723;BME280;67811;42.656;23.394;2023-02-26T03:53:23;93785.22;;;12.39;36.57
77723;BME280;67811;42.656;23.394;2023-02-26T03:55:57;93779.56;;;12.35;36.82
77723;BME280;67811;42.656;23.394;2023-02-26T03:58:29;93799.06;;;12.29;38.43
77723;BME280;67811;42.656;23.394;2023-02-26T04:01:03;93780.19;;;12.19;38.67
77723;BME280;67811;42.656;23.394;2023-02-26T04:03:40;93783.56;;;12.15;38.85
77723;BME280;67811;42.656;23.394;2023-02-26T04:06:15;93774.34;;;12.29;36.81
77723;BME280;67811;42.656;23.394;2023-02-26T04:08:46;93776.59;;;12.55;36.30
77723;BME280;67811;42.656;23.394;2023-02-26T04:11:19;93762.63;;;12.72;35.61
77723;BME280;67811;42.656;23.394;2023-02-26T04:13:50;93751.09;;;12.89;35.77
77723;BME280;67811;42.656;23.394;2023-02-26T04:16:21;93754.91;;;13.05;34.81
77723;BME280;67811;42.656;23.394;2023-02-26T04:18:51;93778.13;;;13.33;34.29
77723;BME280;67811;42.656;23.394;2023-02-26T04:21:23;93750.84;;;13.14;35.70
77723;BME280;67811;42.656;23.394;2023-02-26T04:23:54;93762.31;;;13.03;34.98
77723;BME280;67811;42.656;23.394;2023-02-26T04:26:24;93765.78;;;12.92;35.51
77723;BME280;67811;42.656;23.394;2023-02-26T04:28:55;93743.69;;;13.03;34.30
77723;BME280;67811;42.656;23.394;2023-02-26T04:31:25;93742.53;;;13.23;33.85
77723;BME280;67811;42.656;23.394;2023-02-26T04:33:56;93741.38;;;13.18;34.00
77723;BME280;67811;42.656;23.394;2023-02-26T04:36:28;93725.16;;;13.20;34.10
77723;BME280;67811;42.656;23.394;2023-02-26T04:38:59;93713.38;;;13.16;34.62
77723;BME280;67811;42.656;23.394;2023-02-26T04:41:29;93709.69;;;13.05;34.97
77723;BME280;67811;42.656;23.394;2023-02-26T04:44:00;93720.09;;;12.95;34.84
77723;BME280;67811;42.656;23.394;2023-02-26T04:46:31;93734.91;;;13.03;34.82
77723;BME280;67811;42.656;23.394;2023-02-26T04:49:02;93719.53;;;13.05;34.35
77723;BME280;67811;42.656;23.394;2023-02-26T04:51:34;93718.25;;;12.96;34.33
77723;BME280;67811;42.656;23.394;2023-02-26T04:54:05;93716.84;;;13.05;33.76
77723;BME280;67811;42.656;23.394;2023-02-26T04:56:35;93712.09;;;13.07;34.05
77723;BME280;67811;42.656;23.394;2023-02-26T04:59:06;93714.97;;;13.17;33.64
77723;BME280;67811;42.656;23.394;2023-02-26T05:01:36;93730.03;;;13.11;33.63
77723;BME280;67811;42.656;23.394;2023-02-26T05:04:07;93724.84;;;13.05;34.37
77723;BME280;67811;42.656;23.394;2023-02-26T05:06:39;93725.91;;;12.92;35.03
77723;BME280;67811;42.656;23.394;2023-02-26T05:09:10;93712.38;;;12.82;35.21
77723;BME280;67811;42.656;23.394;2023-02-26T05:11:40;93715.72;;;12.77;34.46
77723;BME280;67811;42.656;23.394;2023-02-26T05:14:11;93701.50;;;12.72;34.97
77723;BME280;67811;42.656;23.394;2023-02-26T05:16:42;93697.47;;;12.92;33.87
77723;BME280;67811;42.656;23.394;2023-02-26T05:19:12;93700.44;;;12.96;33.77
77723;BME280;67811;42.656;23.394;2023-02-26T05:21:44;93715.59;;;12.96;34.06
77723;BME280;67811;42.656;23.394;2023-02-26T05:24:15;93715.28;;;12.80;35.39
77723;BME280;67811;42.656;23.394;2023-02-26T05:26:45;93700.81;;;12.76;34.97
77723;BME280;67811;42.656;23.394;2023-02-26T05:29:16;93696.75;;;12.74;35.34
77723;BME280;67811;42.656;23.394;2023-02-26T05:31:46;93716.16;;;12.62;36.28
77723;BME280;67811;42.656;23.394;2023-02-26T05:34:17;93722.41;;;12.56;36.72
77723;BME280;67811;42.656;23.394;2023-02-26T05:36:49;93721.03;;;12.65;36.15
77723;BME280;67811;42.656;23.394;2023-02-26T05:39:20;93715.50;;;12.67;36.24
77723;BME280;67811;42.656;23.394;2023-02-26T05:41:50;93719.75;;;12.68;36.72
77723;BME280;67811;42.656;23.394;2023-02-26T05:44:21;93697.25;;;12.71;38.23
77723;BME280;67811;42.656;23.394;2023-02-26T05:46:52;93706.03;;;12.71;37.32
77723;BME280;67811;42.656;23.394;2023-02-26T05:49:22;93705.34;;;12.76;36.29
77723;BME280;67811;42.656;23.394;2023-02-26T05:51:54;93710.63;;;12.87;36.08
77723;BME280;67811;42.656;23.394;2023-02-26T05:54:25;93714.22;;;12.93;34.77
77723;BME280;67811;42.656;23.394;2023-02-26T05:56:56;93710.38;;;13.12;34.01
77723;BME280;67811;42.656;23.394;2023-02-26T05:59:26;93690.25;;;13.28;35.09
77723;BME280;67811;42.656;23.394;2023-02-26T06:01:57;93715.09;;;13.34;33.91
77723;BME280;67811;42.656;23.394;2023-02-26T06:04:27;93704.66;;;13.44;33.76
77723;BME280;67811;42.656;23.394;2023-02-26T06:07:00;93707.66;;;13.48;34.42
77723;BME280;67811;42.656;23.394;2023-02-26T06:09:31;93712.25;;;13.64;34.69
77723;BME280;67811;42.656;23.394;2023-02-26T06:12:01;93727.53;;;13.57;34.49
77723;BME280;67811;42.656;23.394;2023-02-26T06:14:32;93713.41;;;13.56;34.63
77723;BME280;67811;42.656;23.394;2023-02-26T06:17:03;93722.53;;;13.60;34.38
77723;BME280;67811;42.656;23.394;2023-02-26T06:19:33;93730.72;;;13.70;34.77
77723;BME280;67811;42.656;23.394;2023-02-26T06:22:05;93742.13;;;13.83;34.13
77723;BME280;67811;42.656;23.394;2023-02-26T06:24:36;93714.09;;;13.92;33.45
77723;BME280;67811;42.656;23.394;2023-02-26T06:27:06;93727.19;;;14.10;33.45
77723;BME280;67811;42.656;23.394;2023-02-26T06:29:37;93721.81;;;14.39;31.44
77723;BME280;67811;42.656;23.394;2023-02-26T06:32:07;93708.69;;;14.66;29.96
77723;BME280;67811;42.656;23.394;2023-02-26T06:34:38;93733.25;;;14.85;30.85
77723;BME280;67811;42.656;23.394;2023-02-26T06:37:10;93732.44;;;15.01;29.61
77723;BME280;67811;42.656;23.394;2023-02-26T06:39:41;93757.75;;;15.20;29.11
77723;BME280;67811;42.656;23.394;2023-02-26T06:42:11;93716.28;;;15.29;29.27
77723;BME280;67811;42.656;23.394;2023-02-26T06:44:42;93716.16;;;15.41;29.63
77723;BME280;67811;42.656;23.394;2023-02-26T06:47:13;93728.75;;;15.46;29.43
77723;BME280;67811;42.656;23.394;2023-02-26T06:49:43;93741.09;;;15.69;28.23
77723;BME280;67811;42.656;23.394;2023-02-26T06:52:15;93710.44;;;15.76;27.80
77723;BME280;67811;42.656;23.394;2023-02-26T06:54:46;93717.09;;;15.96;28.03
77723;BME280;67811;42.656;23.394;2023-02-26T06:57:16;93702.28;;;16.10;29.30
77723;BME280;67811;42.656;23.394;2023-02-26T06:59:47;93719.72;;;16.18;27.68
77723;BME280;67811;42.656;23.394;2023-02-26T07:02:20;93735.25;;;16.53;27.73
77723;BME280;67811;42.656;23.394;2023-02-26T07:04:51;93692.72;;;16.78;26.89
77723;BME280;67811;42.656;23.394;2023-02-26T07:07:23;93717.25;;;17.07;26.02
77723;BME280;67811;42.656;23.394;2023-02-26T07:09:53;93712.38;;;17.47;25.63
77723;BME280;67811;42.656;23.394;2023-02-26T07:12:24;93701.72;;;17.62;25.22
77723;BME280;67811;42.656;23.394;2023-02-26T07:14:54;93689.25;;;17.83;25.24
77723;BME280;67811;42.656;23.394;2023-02-26T07:17:25;93713.13;;;18.00;24.75
77723;BME280;67811;42.656;23.394;2023-02-26T07:19:55;93694.97;;;18.22;24.26
77723;BME280;67811;42.656;23.394;2023-02-26T07:22:27;93705.50;;;18.75;23.58
77723;BME280;67811;42.656;23.394;2023-02-26T07:24:58;93690.19;;;18.80;23.67
77723;BME280;67811;42.656;23.394;2023-02-26T07:27:29;93699.25;;;19.20;23.00
77723;BME280;67811;42.656;23.394;2023-02-26T07:29:59;93701.63;;;19.37;22.96
77723;BME280;67811;42.656;23.394;2023-02-26T07:32:30;93700.78;;;19.62;23.30
77723;BME280;67811;42.656;23.394;2023-02-26T07:35:00;93735.25;;;18.99;22.56
77723;BME280;67811;42.656;23.394;2023-02-26T07:37:32;93715.91;;;19.17;22.50
77723;BME280;67811;42.656;23.394;2023-02-26T07:40:04;93721.84;;;18.78;22.70
77723;BME280;67811;42.656;23.394;2023-02-26T07:42:35;93721.81;;;19.29;22.26
77723;BME280;67811;42.656;23.394;2023-02-26T07:45:06;93715.56;;;19.54;21.78
77723;BME280;67811;42.656;23.394;2023-02-26T07:47:37;93731.13;;;20.27;21.84
77723;BME280;67811;42.656;23.394;2023-02-26T07:50:09;93707.00;;;20.61;20.35
77723;BME280;67811;42.656;23.394;2023-02-26T07:52:41;93707.50;;;20.19;20.83
77723;BME280;67811;42.656;23.394;2023-02-26T07:55:12;93714.31;;;20.01;21.88
77723;BME280;67811;42.656;23.394;2023-02-26T07:57:42;93673.31;;;19.75;21.22
77723;BME280;67811;42.656;23.394;2023-02-26T08:00:14;93686.88;;;19.34;21.18
77723;BME280;67811;42.656;23.394;2023-02-26T08:02:45;93708.94;;;19.06;21.67
77723;BME280;67811;42.656;23.394;2023-02-26T08:05:15;93717.84;;;18.81;22.08
77723;BME280;67811;42.656;23.394;2023-02-26T08:07:47;93715.38;;;19.10;22.91
77723;BME280;67811;42.656;23.394;2023-02-26T08:10:18;93751.88;;;19.21;22.08
77723;BME280;67811;42.656;23.394;2023-02-26T08:12:48;93685.88;;;18.94;21.98
77723;BME280;67811;42.656;23.394;2023-02-26T08:15:19;93720.47;;;18.60;22.67
77723;BME280;67811;42.656;23.394;2023-02-26T08:17:51;93698.72;;;18.57;22.67
77723;BME280;67811;42.656;23.394;2023-02-26T08:20:22;93754.25;;;18.51;22.25
77723;BME280;67811;42.656;23.394;2023-02-26T08:22:54;93693.63;;;18.25;22.98
77723;BME280;67811;42.656;23.394;2023-02-26T08:25:24;93723.94;;;18.25;22.62
77723;BME280;67811;42.656;23.394;2023-02-26T08:27:55;93732.22;;;18.29;22.43
77723;BME280;67811;42.656;23.394;2023-02-26T08:30:25;93742.75;;;18.40;23.21
77723;BME280;67811;42.656;23.394;2023-02-26T08:32:56;93729.31;;;18.35;22.49
77723;BME280;67811;42.656;23.394;2023-02-26T08:35:26;93732.81;;;18.36;23.44
77723;BME280;67811;42.656;23.394;2023-02-26T08:37:58;93755.34;;;18.50;22.18
77723;BME280;67811;42.656;23.394;2023-02-26T08:40:29;93770.63;;;18.55;22.13
77723;BME280;67811;42.656;23.394;2023-02-26T08:42:59;93754.75;;;18.23;22.71
77723;BME280;67811;42.656;23.394;2023-02-26T08:45:30;93751.81;;;18.19;23.45
77723;BME280;67811;42.656;23.394;2023-02-26T08:48:00;93761.47;;;18.30;22.84
77723;BME280;67811;42.656;23.394;2023-02-26T08:50:31;93732.28;;;18.49;23.38
77723;BME280;67811;42.656;23.394;2023-02-26T08:53:04;93749.94;;;18.20;22.27
77723;BME280;67811;42.656;23.394;2023-02-26T08:55:34;93748.59;;;18.27;22.22
77723;BME280;67811;42.656;23.394;2023-02-26T08:58:05;93742.16;;;18.28;21.56
77723;BME280;67811;42.656;23.394;2023-02-26T09:00:35;93752.63;;;18.40;22.71
77723;BME280;67811;42.656;23.394;2023-02-26T09:03:06;93757.22;;;18.55;22.52
77723;BME280;67811;42.656;23.394;2023-02-26T09:05:37;93736.31;;;18.67;21.72
77723;BME280;67811;42.656;23.394;2023-02-26T09:08:09;93740.06;;;18.56;21.33
77723;BME280;67811;42.656;23.394;2023-02-26T09:10:40;93726.38;;;18.57;21.63
77723;BME280;67811;42.656;23.394;2023-02-26T09:13:11;93730.97;;;18.98;21.61
77723;BME280;67811;42.656;23.394;2023-02-26T09:15:41;93745.94;;;19.44;20.81
77723;BME280;67811;42.656;23.394;2023-02-26T09:18:12;93739.75;;;19.59;20.19
77723;BME280;67811;42.656;23.394;2023-02-26T09:20:43;93743.16;;;19.85;20.55
77723;BME280;67811;42.656;23.394;2023-02-26T09:23:15;93733.25;;;20.30;22.11
77723;BME280;67811;42.656;23.394;2023-02-26T09:25:45;93734.84;;;20.81;19.82
77723;BME280;67811;42.656;23.394;2023-02-26T09:28:21;93742.28;;;21.23;21.17
77723;BME280;67811;42.656;23.394;2023-02-26T09:30:52;93730.84;;;21.07;18.77
77723;BME280;67811;42.656;23.394;2023-02-26T09:33:22;93744.22;;;21.17;19.19
77723;BME280;67811;42.656;23.394;2023-02-26T09:35:53;93731.94;;;21.06;19.20
77723;BME280;67811;42.656;23.394;2023-02-26T09:38:25;93755.69;;;21.62;18.43
77723;BME280;67811;42.656;23.394;2023-02-26T09:40:57;93757.25;;;21.92;18.42
77723;BME280;67811;42.656;23.394;2023-02-26T09:46:43;93747.94;;;22.03;17.86
77723;BME280;67811;42.656;23.394;2023-02-26T09:49:21;93738.44;;;22.30;17.92
77723;BME280;67811;42.656;23.394;2023-02-26T09:51:54;93742.16;;;22.72;17.27
77723;BME280;67811;42.656;23.394;2023-02-26T09:54:30;93740.78;;;22.93;17.50
77723;BME280;67811;42.656;23.394;2023-02-26T09:57:02;93730.16;;;23.16;17.35
77723;BME280;67811;42.656;23.394;2023-02-26T09:59:34;93726.31;;;23.35;16.59
77723;BME280;67811;42.656;23.394;2023-02-26T10:02:14;93730.00;;;23.39;16.27
77723;BME280;67811;42.656;23.394;2023-02-26T10:04:50;93719.91;;;22.61;17.06
77723;BME280;67811;42.656;23.394;2023-02-26T10:07:31;93732.00;;;23.34;17.41
77723;BME280;67811;42.656;23.394;2023-02-26T10:10:16;93731.25;;;23.61;16.91
77723;BME280;67811;42.656;23.394;2023-02-26T10:12:49;93746.44;;;23.43;15.98
77723;BME280;67811;42.656;23.394;2023-02-26T10:15:22;93723.09;;;23.01;16.35
77723;BME280;67811;42.656;23.394;2023-02-26T10:18:02;93735.94;;;23.42;17.32
77723;BME280;67811;42.656;23.394;2023-02-26T10:20:38;93720.47;;;23.14;16.89
77723;BME280;67811;42.656;23.394;2023-02-26T10:23:18;93727.72;;;22.25;19.45
77723;BME280;67811;42.656;23.394;2023-02-26T10:25:53;93718.34;;;21.98;18.06
77723;BME280;67811;42.656;23.394;2023-02-26T10:28:40;93731.66;;;22.08;17.83
77723;BME280;67811;42.656;23.394;2023-02-26T10:31:18;93718.31;;;22.22;17.68
77723;BME280;67811;42.656;23.394;2023-02-26T10:33:59;93726.22;;;22.14;18.93
77723;BME280;67811;42.656;23.394;2023-02-26T10:36:41;93713.41;;;21.28;18.30
77723;BME280;67811;42.656;23.394;2023-02-26T10:39:28;93701.00;;;20.98;19.64
77723;BME280;67811;42.656;23.394;2023-02-26T10:42:04;93684.81;;;19.86;19.85
77723;BME280;67811;42.656;23.394;2023-02-26T10:44:44;93682.75;;;19.67;20.99
77723;BME280;67811;42.656;23.394;2023-02-26T10:47:21;93692.88;;;19.86;20.51
77723;BME280;67811;42.656;23.394;2023-02-26T10:50:00;93686.38;;;19.97;20.35
77723;BME280;67811;42.656;23.394;2023-02-26T10:52:33;93680.50;;;19.90;20.32
77723;BME280;67811;42.656;23.394;2023-02-26T10:55:22;93681.63;;;19.84;20.40
77723;BME280;67811;42.656;23.394;2023-02-26T10:58:03;93693.41;;;19.88;20.28
77723;BME280;67811;42.656;23.394;2023-02-26T11:00:33;93688.28;;;19.91;20.88
77723;BME280;67811;42.656;23.394;2023-02-26T11:03:06;93703.94;;;19.84;20.63
77723;BME280;67811;42.656;23.394;2023-02-26T11:05:38;93713.56;;;19.90;20.77
77723;BME280;67811;42.656;23.394;2023-02-26T11:08:14;93695.94;;;19.48;21.01
77723;BME280;67811;42.656;23.394;2023-02-26T11:10:49;93696.53;;;19.45;21.65
77723;BME280;67811;42.656;23.394;2023-02-26T11:13:23;93685.78;;;19.40;22.53
77723;BME280;67811;42.656;23.394;2023-02-26T11:15:56;93690.13;;;19.21;21.49
77723;BME280;67811;42.656;23.394;2023-02-26T11:18:28;93669.25;;;18.92;22.00
77723;BME280;67811;42.656;23.394;2023-02-26T11:20:59;93673.78;;;18.66;22.03
77723;BME280;67811;42.656;23.394;2023-02-26T11:23:31;93655.03;;;18.31;22.01
77723;BME280;67811;42.656;23.394;2023-02-26T11:26:05;93648.06;;;18.30;22.19
77723;BME280;67811;42.656;23.394;2023-02-26T11:28:43;93671.84;;;18.01;22.40
77723;BME280;67811;42.656;23.394;2023-02-26T11:31:16;93678.81;;;17.92;22.70
77723;BME280;67811;42.656;23.394;2023-02-26T11:33:49;93693.31;;;18.01;23.15
77723;BME280;67811;42.656;23.394;2023-02-26T11:36:21;93691.16;;;17.93;22.80
77723;BME280;67811;42.656;23.394;2023-02-26T11:38:55;93694.88;;;17.86;22.81
77723;BME280;67811;42.656;23.394;2023-02-26T11:41:26;93702.94;;;17.92;22.99
77723;BME280;67811;42.656;23.394;2023-02-26T11:44:02;93685.22;;;17.80;23.15
77723;BME280;67811;42.656;23.394;2023-02-26T11:46:41;93683.25;;;17.65;23.10
77723;BME280;67811;42.656;23.394;2023-02-26T11:49:14;93698.78;;;17.69;23.36
77723;BME280;67811;42.656;23.394;2023-02-26T11:51:46;93696.44;;;17.72;23.97
77723;BME280;67811;42.656;23.394;2023-02-26T11:54:22;93718.34;;;17.64;23.40
77723;BME280;67811;42.656;23.394;2023-02-26T11:57:00;93723.16;;;17.62;24.00
77723;BME280;67811;42.656;23.394;2023-02-26T11:59:32;93739.53;;;17.65;23.54
77723;BME280;67811;42.656;23.394;2023-02-26T12:02:09;93750.56;;;17.79;23.42
77723;BME280;67811;42.656;23.394;2023-02-26T12:04:43;93740.94;;;17.83;23.55
77723;BME280;67811;42.656;23.394;2023-02-26T12:07:15;93747.38;;;17.77;23.55
77723;BME280;67811;42.656;23.394;2023-02-26T12:09:47;93745.16;;;17.69;23.98
77723;BME280;67811;42.656;23.394;2023-02-26T12:12:26;93744.41;;;17.74;23.77
77723;BME280;67811;42.656;23.394;2023-02-26T12:15:13;93741.50;;;17.80;24.17
77723;BME280;67811;42.656;23.394;2023-02-26T12:18:12;93733.13;;;17.72;23.64
77723;BME280;67811;42.656;23.394;2023-02-26T12:20:53;93743.06;;;17.76;24.36
77723;BME280;67811;42.656;23.394;2023-02-26T12:23:38;93738.25;;;17.78;24.48
77723;BME280;67811;42.656;23.394;2023-02-26T12:26:23;93735.56;;;17.73;25.07
77723;BME280;67811;42.656;23.394;2023-02-26T12:29:13;93752.91;;;17.65;25.23
77723;BME280;67811;42.656;23.394;2023-02-26T12:32:14;93751.53;;;17.53;27.58
77723;BME280;67811;42.656;23.394;2023-02-26T12:38:07;93754.88;;;17.33;28.23
77723;BME280;67811;42.656;23.394;2023-02-26T12:40:51;93759.44;;;17.32;27.94
77723;BME280;67811;42.656;23.394;2023-02-26T12:43:31;93757.84;;;17.36;27.68
77723;BME280;67811;42.656;23.394;2023-02-26T12:46:15;93759.53;;;17.48;28.35
77723;BME280;67811;42.656;23.394;2023-02-26T12:52:19;93766.22;;;17.50;29.03
77723;BME280;67811;42.656;23.394;2023-02-26T12:55:07;93769.19;;;17.54;28.30
77723;BME280;67811;42.656;23.394;2023-02-26T12:58:06;93764.66;;;17.54;28.55
77723;BME280;67811;42.656;23.394;2023-02-26T13:00:50;93767.31;;;17.54;28.66
77723;BME280;67811;42.656;23.394;2023-02-26T13:08:01;93751.28;;;17.59;28.22
77723;BME280;67811;42.656;23.394;2023-02-26T13:10:43;93749.44;;;17.65;26.41
77723;BME280;67811;42.656;23.394;2023-02-26T13:13:31;93747.28;;;17.67;26.72
77723;BME280;67811;42.656;23.394;2023-02-26T13:16:17;93752.13;;;17.70;26.93
77723;BME280;67811;42.656;23.394;2023-02-26T13:18:55;93747.06;;;17.74;26.93
77723;BME280;67811;42.656;23.394;2023-02-26T13:21:34;93766.38;;;17.76;25.86
77723;BME280;67811;42.656;23.394;2023-02-26T13:24:09;93762.94;;;17.80;26.07
77723;BME280;67811;42.656;23.394;2023-02-26T13:26:41;93752.75;;;17.82;27.31
77723;BME280;67811;42.656;23.394;2023-02-26T13:29:16;93760.56;;;17.94;27.24
77723;BME280;67811;42.656;23.394;2023-02-26T13:31:52;93759.53;;;18.05;27.25
77723;BME280;67811;42.656;23.394;2023-02-26T13:34:35;93753.94;;;18.17;27.23
77723;BME280;67811;42.656;23.394;2023-02-26T13:37:20;93745.94;;;18.37;26.42
77723;BME280;67811;42.656;23.394;2023-02-26T13:40:20;93733.59;;;18.36;25.73
77723;BME280;67811;42.656;23.394;2023-02-26T13:43:01;93740.88;;;18.46;25.38